sensor_id;sensor_type;location;lat;lon;timestamp;temperature;humidity
70068;DHT22;57425;51.616;6.680;2023-04-06T00:01:47;6.70;65.00
70068;DHT22;57425;51.616;6.680;2023-04-06T00:04:13;6.70;64.90
70068;DHT22;57425;51.616;6.680;2023-04-06T00:06:38;6.60;64.90
70068;DHT22;57425;51.616;6.680;2023-04-06T00:09:04;6.60;64.90
70068;DHT22;57425;51.616;6.680;2023-04-06T00:11:30;7.10;76.90
70068;DHT22;57425;51.616;6.680;2023-04-06T00:13:55;6.80;77.60
70068;DHT22;57425;51.616;6.680;2023-04-06T00:16:21;6.70;74.90
70068;DHT22;57425;51.616;6.680;2023-04-06T00:18:47;6.50;64.90
70068;DHT22;57425;51.616;6.680;2023-04-06T00:21:13;6.50;64.90
70068;DHT22;57425;51.616;6.680;2023-04-06T00:23:40;6.50;64.90
70068;DHT22;57425;51.616;6.680;2023-04-06T00:26:06;6.50;65.00
70068;DHT22;57425;51.616;6.680;2023-04-06T00:28:31;6.50;65.00
70068;DHT22;57425;51.616;6.680;2023-04-06T00:30:57;6.50;65.00
70068;DHT22;57425;51.616;6.680;2023-04-06T00:33:23;6.50;65.10
70068;DHT22;57425;51.616;6.680;2023-04-06T00:35:49;6.40;65.00
70068;DHT22;57425;51.616;6.680;2023-04-06T00:38:15;6.40;65.00
70068;DHT22;57425;51.616;6.680;2023-04-06T00:40:42;6.40;65.00
70068;DHT22;57425;51.616;6.680;2023-04-06T00:43:11;6.40;65.00
70068;DHT22;57425;51.616;6.680;2023-04-06T00:45:41;6.40;65.00
70068;DHT22;57425;51.616;6.680;2023-04-06T00:48:08;6.40;65.00
70068;DHT22;57425;51.616;6.680;2023-04-06T00:50:34;6.30;65.00
70068;DHT22;57425;51.616;6.680;2023-04-06T00:53:00;6.30;65.00
70068;DHT22;57425;51.616;6.680;2023-04-06T00:55:27;6.30;65.10
70068;DHT22;57425;51.616;6.680;2023-04-06T00:57:53;6.30;65.10
70068;DHT22;57425;51.616;6.680;2023-04-06T01:00:19;6.30;65.10
70068;DHT22;57425;51.616;6.680;2023-04-06T01:02:45;6.20;65.00
70068;DHT22;57425;51.616;6.680;2023-04-06T01:05:11;6.20;65.00
70068;DHT22;57425;51.616;6.680;2023-04-06T01:07:37;6.20;65.00
70068;DHT22;57425;51.616;6.680;2023-04-06T01:10:03;6.20;65.10
70068;DHT22;57425;51.616;6.680;2023-04-06T01:12:29;6.20;65.10
70068;DHT22;57425;51.616;6.680;2023-04-06T01:14:55;6.20;65.20
70068;DHT22;57425;51.616;6.680;2023-04-06T01:17:21;6.10;65.10
70068;DHT22;57425;51.616;6.680;2023-04-06T01:19:47;6.10;65.10
70068;DHT22;57425;51.616;6.680;2023-04-06T01:22:16;6.10;65.10
70068;DHT22;57425;51.616;6.680;2023-04-06T01:24:42;6.10;65.20
70068;DHT22;57425;51.616;6.680;2023-04-06T01:27:08;6.10;65.20
70068;DHT22;57425;51.616;6.680;2023-04-06T01:29:33;6.10;65.20
70068;DHT22;57425;51.616;6.680;2023-04-06T01:31:59;6.10;65.20
70068;DHT22;57425;51.616;6.680;2023-04-06T01:34:24;6.00;65.20
70068;DHT22;57425;51.616;6.680;2023-04-06T01:36:50;6.00;65.20
70068;DHT22;57425;51.616;6.680;2023-04-06T01:39:16;6.00;65.20
70068;DHT22;57425;51.616;6.680;2023-04-06T01:41:41;6.00;65.30
70068;DHT22;57425;51.616;6.680;2023-04-06T01:44:07;6.00;65.30
70068;DHT22;57425;51.616;6.680;2023-04-06T01:46:32;6.00;65.40
70068;DHT22;57425;51.616;6.680;2023-04-06T01:48:58;5.90;65.40
70068;DHT22;57425;51.616;6.680;2023-04-06T01:51:24;5.90;65.40
70068;DHT22;57425;51.616;6.680;2023-04-06T01:53:51;5.90;65.50
70068;DHT22;57425;51.616;6.680;2023-04-06T01:56:16;5.90;65.40
70068;DHT22;57425;51.616;6.680;2023-04-06T01:58:42;5.90;65.50
70068;DHT22;57425;51.616;6.680;2023-04-06T02:01:08;5.90;65.40
70068;DHT22;57425;51.616;6.680;2023-04-06T02:03:34;5.90;65.40
70068;DHT22;57425;51.616;6.680;2023-04-06T02:05:59;5.80;65.90
70068;DHT22;57425;51.616;6.680;2023-04-06T02:08:25;5.80;65.40
70068;DHT22;57425;51.616;6.680;2023-04-06T02:10:51;5.80;65.30
70068;DHT22;57425;51.616;6.680;2023-04-06T02:13:16;5.80;65.30
70068;DHT22;57425;51.616;6.680;2023-04-06T02:15:42;5.80;65.30
70068;DHT22;57425;51.616;6.680;2023-04-06T02:18:07;5.80;65.30
70068;DHT22;57425;51.616;6.680;2023-04-06T02:20:34;5.80;65.40
70068;DHT22;57425;51.616;6.680;2023-04-06T02:23:00;5.70;65.40
70068;DHT22;57425;51.616;6.680;2023-04-06T02:25:26;5.80;65.50
70068;DHT22;57425;51.616;6.680;2023-04-06T02:27:52;5.90;69.00
70068;DHT22;57425;51.616;6.680;2023-04-06T02:30:17;5.70;65.60
70068;DHT22;57425;51.616;6.680;2023-04-06T02:32:43;5.70;65.40
70068;DHT22;57425;51.616;6.680;2023-04-06T02:35:09;5.70;65.40
70068;DHT22;57425;51.616;6.680;2023-04-06T02:37:34;5.70;65.40
70068;DHT22;57425;51.616;6.680;2023-04-06T02:40:00;5.60;65.20
70068;DHT22;57425;51.616;6.680;2023-04-06T02:42:26;5.70;65.20
70068;DHT22;57425;51.616;6.680;2023-04-06T02:44:51;5.60;65.20
70068;DHT22;57425;51.616;6.680;2023-04-06T02:47:17;5.60;65.20
70068;DHT22;57425;51.616;6.680;2023-04-06T02:49:42;5.60;65.20
70068;DHT22;57425;51.616;6.680;2023-04-06T02:52:08;5.60;65.20
70068;DHT22;57425;51.616;6.680;2023-04-06T02:54:34;5.60;65.10
70068;DHT22;57425;51.616;6.680;2023-04-06T02:56:59;5.60;65.10
70068;DHT22;57425;51.616;6.680;2023-04-06T02:59:25;5.60;65.10
70068;DHT22;57425;51.616;6.680;2023-04-06T03:01:51;5.50;65.00
70068;DHT22;57425;51.616;6.680;2023-04-06T03:04:17;5.50;65.00
70068;DHT22;57425;51.616;6.680;2023-04-06T03:06:43;5.50;64.90
70068;DHT22;57425;51.616;6.680;2023-04-06T03:09:08;5.50;64.90
70068;DHT22;57425;51.616;6.680;2023-04-06T03:11:34;5.50;64.90
70068;DHT22;57425;51.616;6.680;2023-04-06T03:14:00;5.50;64.90
70068;DHT22;57425;51.616;6.680;2023-04-06T03:16:25;5.50;64.90
70068;DHT22;57425;51.616;6.680;2023-04-06T03:18:51;5.50;64.90
70068;DHT22;57425;51.616;6.680;2023-04-06T03:21:16;5.40;64.80
70068;DHT22;57425;51.616;6.680;2023-04-06T03:23:42;5.40;64.80
70068;DHT22;57425;51.616;6.680;2023-04-06T03:26:08;5.40;64.80
70068;DHT22;57425;51.616;6.680;2023-04-06T03:28:34;5.40;64.90
70068;DHT22;57425;51.616;6.680;2023-04-06T03:30:59;5.40;64.80
70068;DHT22;57425;51.616;6.680;2023-04-06T03:33:25;5.40;64.70
70068;DHT22;57425;51.616;6.680;2023-04-06T03:35:54;5.30;64.60
70068;DHT22;57425;51.616;6.680;2023-04-06T03:38:19;5.30;64.60
70068;DHT22;57425;51.616;6.680;2023-04-06T03:40:45;5.40;64.60
70068;DHT22;57425;51.616;6.680;2023-04-06T03:43:11;5.30;64.60
70068;DHT22;57425;51.616;6.680;2023-04-06T03:45:37;5.30;64.50
70068;DHT22;57425;51.616;6.680;2023-04-06T03:48:03;5.30;64.50
70068;DHT22;57425;51.616;6.680;2023-04-06T03:50:28;5.30;64.50
70068;DHT22;57425;51.616;6.680;2023-04-06T03:52:54;5.30;65.00
70068;DHT22;57425;51.616;6.680;2023-04-06T03:55:19;5.20;64.40
70068;DHT22;57425;51.616;6.680;2023-04-06T03:57:45;5.20;64.40
70068;DHT22;57425;51.616;6.680;2023-04-06T04:00:11;5.20;64.40
70068;DHT22;57425;51.616;6.680;2023-04-06T04:02:37;5.20;64.30
70068;DHT22;57425;51.616;6.680;2023-04-06T04:05:03;5.20;64.90
70068;DHT22;57425;51.616;6.680;2023-04-06T04:07:29;5.20;64.30
70068;DHT22;57425;51.616;6.680;2023-04-06T04:09:54;5.20;64.30
70068;DHT22;57425;51.616;6.680;2023-04-06T04:12:20;5.20;64.30
70068;DHT22;57425;51.616;6.680;2023-04-06T04:14:46;5.10;64.30
70068;DHT22;57425;51.616;6.680;2023-04-06T04:17:11;5.10;64.30
70068;DHT22;57425;51.616;6.680;2023-04-06T04:19:37;5.10;64.30
70068;DHT22;57425;51.616;6.680;2023-04-06T04:22:02;5.10;64.30
70068;DHT22;57425;51.616;6.680;2023-04-06T04:24:32;5.10;64.30
70068;DHT22;57425;51.616;6.680;2023-04-06T04:26:58;5.10;64.30
70068;DHT22;57425;51.616;6.680;2023-04-06T04:29:26;5.10;64.30
70068;DHT22;57425;51.616;6.680;2023-04-06T04:31:51;5.00;64.30
70068;DHT22;57425;51.616;6.680;2023-04-06T04:36:46;5.20;90.00
70068;DHT22;57425;51.616;6.680;2023-04-06T04:39:11;5.00;64.30
70068;DHT22;57425;51.616;6.680;2023-04-06T04:41:37;5.00;64.20
70068;DHT22;57425;51.616;6.680;2023-04-06T04:44:03;5.00;64.20
70068;DHT22;57425;51.616;6.680;2023-04-06T04:48:55;5.00;63.80
70068;DHT22;57425;51.616;6.680;2023-04-06T04:51:21;4.90;64.30
70068;DHT22;57425;51.616;6.680;2023-04-06T04:53:46;4.90;64.30
70068;DHT22;57425;51.616;6.680;2023-04-06T04:56:12;4.90;64.30
70068;DHT22;57425;51.616;6.680;2023-04-06T04:58:37;4.90;64.50
70068;DHT22;57425;51.616;6.680;2023-04-06T05:01:03;4.90;64.50
70068;DHT22;57425;51.616;6.680;2023-04-06T05:03:29;4.80;64.40
70068;DHT22;57425;51.616;6.680;2023-04-06T05:05:55;4.80;64.40
70068;DHT22;57425;51.616;6.680;2023-04-06T05:08:20;4.80;64.40
70068;DHT22;57425;51.616;6.680;2023-04-06T05:10:46;4.80;64.60
70068;DHT22;57425;51.616;6.680;2023-04-06T05:13:13;4.80;64.60
70068;DHT22;57425;51.616;6.680;2023-04-06T05:15:40;4.80;64.60
70068;DHT22;57425;51.616;6.680;2023-04-06T05:18:09;4.80;64.70
70068;DHT22;57425;51.616;6.680;2023-04-06T05:20:35;4.70;64.70
70068;DHT22;57425;51.616;6.680;2023-04-06T05:23:01;4.70;64.80
70068;DHT22;57425;51.616;6.680;2023-04-06T05:25:27;4.70;64.80
70068;DHT22;57425;51.616;6.680;2023-04-06T05:27:53;4.70;64.90
70068;DHT22;57425;51.616;6.680;2023-04-06T05:30:19;4.90;89.00
70068;DHT22;57425;51.616;6.680;2023-04-06T05:32:45;4.70;65.10
70068;DHT22;57425;51.616;6.680;2023-04-06T05:35:11;4.70;65.70
70068;DHT22;57425;51.616;6.680;2023-04-06T05:37:38;4.70;65.20
70068;DHT22;57425;51.616;6.680;2023-04-06T05:40:04;4.70;65.20
70068;DHT22;57425;51.616;6.680;2023-04-06T05:42:40;4.60;65.20
70068;DHT22;57425;51.616;6.680;2023-04-06T05:45:09;4.70;65.30
70068;DHT22;57425;51.616;6.680;2023-04-06T05:47:36;4.70;65.60
70068;DHT22;57425;51.616;6.680;2023-04-06T05:50:02;4.60;65.70
70068;DHT22;57425;51.616;6.680;2023-04-06T05:52:28;4.60;66.00
70068;DHT22;57425;51.616;6.680;2023-04-06T05:54:54;4.60;65.90
70068;DHT22;57425;51.616;6.680;2023-04-06T05:57:20;4.60;65.90
70068;DHT22;57425;51.616;6.680;2023-04-06T05:59:45;4.60;65.90
70068;DHT22;57425;51.616;6.680;2023-04-06T06:02:11;4.60;66.00
70068;DHT22;57425;51.616;6.680;2023-04-06T06:04:37;4.60;66.10
70068;DHT22;57425;51.616;6.680;2023-04-06T06:07:02;4.60;66.20
70068;DHT22;57425;51.616;6.680;2023-04-06T06:09:28;4.60;66.30
70068;DHT22;57425;51.616;6.680;2023-04-06T06:11:54;4.60;66.40
70068;DHT22;57425;51.616;6.680;2023-04-06T06:14:20;4.60;66.40
70068;DHT22;57425;51.616;6.680;2023-04-06T06:16:47;4.50;66.40
70068;DHT22;57425;51.616;6.680;2023-04-06T06:19:12;4.50;66.50
70068;DHT22;57425;51.616;6.680;2023-04-06T06:21:38;4.50;66.50
70068;DHT22;57425;51.616;6.680;2023-04-06T06:24:04;4.60;66.70
70068;DHT22;57425;51.616;6.680;2023-04-06T06:26:30;4.50;66.60
70068;DHT22;57425;51.616;6.680;2023-04-06T06:28:55;4.50;66.70
70068;DHT22;57425;51.616;6.680;2023-04-06T06:31:21;4.50;66.70
70068;DHT22;57425;51.616;6.680;2023-04-06T06:33:48;4.50;66.70
70068;DHT22;57425;51.616;6.680;2023-04-06T06:36:17;4.50;66.70
70068;DHT22;57425;51.616;6.680;2023-04-06T06:38:43;4.50;66.80
70068;DHT22;57425;51.616;6.680;2023-04-06T06:41:08;4.50;66.70
70068;DHT22;57425;51.616;6.680;2023-04-06T06:43:34;4.50;66.80
70068;DHT22;57425;51.616;6.680;2023-04-06T06:46:00;4.50;66.70
70068;DHT22;57425;51.616;6.680;2023-04-06T06:48:25;4.50;67.90
70068;DHT22;57425;51.616;6.680;2023-04-06T06:50:51;4.60;67.70
70068;DHT22;57425;51.616;6.680;2023-04-06T06:53:17;4.50;67.50
70068;DHT22;57425;51.616;6.680;2023-04-06T06:55:43;4.50;67.30
70068;DHT22;57425;51.616;6.680;2023-04-06T06:58:09;4.50;67.20
70068;DHT22;57425;51.616;6.680;2023-04-06T07:00:35;4.50;67.30
70068;DHT22;57425;51.616;6.680;2023-04-06T07:03:01;4.50;67.20
70068;DHT22;57425;51.616;6.680;2023-04-06T07:05:26;4.50;67.30
70068;DHT22;57425;51.616;6.680;2023-04-06T07:07:52;4.50;67.20
70068;DHT22;57425;51.616;6.680;2023-04-06T07:10:18;4.50;67.20
70068;DHT22;57425;51.616;6.680;2023-04-06T07:12:44;4.50;67.20
70068;DHT22;57425;51.616;6.680;2023-04-06T07:15:10;4.50;67.20
70068;DHT22;57425;51.616;6.680;2023-04-06T07:17:35;4.60;67.20
70068;DHT22;57425;51.616;6.680;2023-04-06T07:20:01;4.60;67.30
70068;DHT22;57425;51.616;6.680;2023-04-06T07:22:27;4.60;67.20
70068;DHT22;57425;51.616;6.680;2023-04-06T07:24:52;4.60;67.20
70068;DHT22;57425;51.616;6.680;2023-04-06T07:27:18;4.60;67.20
70068;DHT22;57425;51.616;6.680;2023-04-06T07:29:44;4.60;67.20
70068;DHT22;57425;51.616;6.680;2023-04-06T07:32:10;4.60;67.20
70068;DHT22;57425;51.616;6.680;2023-04-06T07:34:35;4.70;67.30
70068;DHT22;57425;51.616;6.680;2023-04-06T07:37:01;4.70;67.30
70068;DHT22;57425;51.616;6.680;2023-04-06T07:39:28;4.70;67.40
70068;DHT22;57425;51.616;6.680;2023-04-06T07:41:54;4.70;67.40
70068;DHT22;57425;51.616;6.680;2023-04-06T07:44:20;4.70;67.50
70068;DHT22;57425;51.616;6.680;2023-04-06T07:46:45;4.70;67.50
70068;DHT22;57425;51.616;6.680;2023-04-06T07:49:11;4.70;67.60
70068;DHT22;57425;51.616;6.680;2023-04-06T07:51:38;4.80;67.70
70068;DHT22;57425;51.616;6.680;2023-04-06T07:54:04;4.80;67.70
70068;DHT22;57425;51.616;6.680;2023-04-06T07:56:30;4.80;67.70
70068;DHT22;57425;51.616;6.680;2023-04-06T07:58:56;4.80;67.70
70068;DHT22;57425;51.616;6.680;2023-04-06T08:01:23;4.90;67.80
70068;DHT22;57425;51.616;6.680;2023-04-06T08:03:49;4.90;67.90
70068;DHT22;57425;51.616;6.680;2023-04-06T08:06:15;4.90;68.00
70068;DHT22;57425;51.616;6.680;2023-04-06T08:08:42;4.90;68.00
70068;DHT22;57425;51.616;6.680;2023-04-06T08:11:07;4.90;68.10
70068;DHT22;57425;51.616;6.680;2023-04-06T08:13:34;4.90;68.20
70068;DHT22;57425;51.616;6.680;2023-04-06T08:16:00;5.00;68.20
70068;DHT22;57425;51.616;6.680;2023-04-06T08:18:26;5.00;68.30
70068;DHT22;57425;51.616;6.680;2023-04-06T08:20:52;5.00;68.40
70068;DHT22;57425;51.616;6.680;2023-04-06T08:23:17;5.00;68.50
70068;DHT22;57425;51.616;6.680;2023-04-06T08:25:43;5.00;68.50
70068;DHT22;57425;51.616;6.680;2023-04-06T08:28:09;5.10;68.70
70068;DHT22;57425;51.616;6.680;2023-04-06T08:30:35;5.10;68.70
70068;DHT22;57425;51.616;6.680;2023-04-06T08:33:01;5.10;68.80
70068;DHT22;57425;51.616;6.680;2023-04-06T08:35:27;5.20;69.20
70068;DHT22;57425;51.616;6.680;2023-04-06T08:37:53;5.20;70.60
70068;DHT22;57425;51.616;6.680;2023-04-06T08:42:50;5.40;92.90
70068;DHT22;57425;51.616;6.680;2023-04-06T08:45:16;5.30;74.40
70068;DHT22;57425;51.616;6.680;2023-04-06T08:47:43;5.90;90.80
70068;DHT22;57425;51.616;6.680;2023-04-06T08:50:10;5.50;74.50
70068;DHT22;57425;51.616;6.680;2023-04-06T08:55:05;5.50;97.20
70068;DHT22;57425;51.616;6.680;2023-04-06T08:57:31;5.40;70.20
70068;DHT22;57425;51.616;6.680;2023-04-06T08:59:57;5.40;69.70
70068;DHT22;57425;51.616;6.680;2023-04-06T09:02:26;5.40;69.70
70068;DHT22;57425;51.616;6.680;2023-04-06T09:04:53;5.50;69.80
70068;DHT22;57425;51.616;6.680;2023-04-06T09:07:19;5.50;69.90
70068;DHT22;57425;51.616;6.680;2023-04-06T09:09:45;5.50;70.00
70068;DHT22;57425;51.616;6.680;2023-04-06T09:12:27;5.50;70.00
70068;DHT22;57425;51.616;6.680;2023-04-06T09:14:53;5.60;70.00
70068;DHT22;57425;51.616;6.680;2023-04-06T09:17:21;5.60;70.10
70068;DHT22;57425;51.616;6.680;2023-04-06T09:19:47;5.60;70.10
70068;DHT22;57425;51.616;6.680;2023-04-06T09:22:12;5.60;70.20
70068;DHT22;57425;51.616;6.680;2023-04-06T09:24:49;5.70;70.30
70068;DHT22;57425;51.616;6.680;2023-04-06T09:27:15;5.70;70.20
70068;DHT22;57425;51.616;6.680;2023-04-06T09:29:42;5.70;70.30
70068;DHT22;57425;51.616;6.680;2023-04-06T09:32:09;5.70;70.40
70068;DHT22;57425;51.616;6.680;2023-04-06T09:34:42;5.80;70.40
70068;DHT22;57425;51.616;6.680;2023-04-06T09:37:18;5.10;94.70
70068;DHT22;57425;51.616;6.680;2023-04-06T09:39:45;5.90;94.50
70068;DHT22;57425;51.616;6.680;2023-04-06T09:42:31;5.90;70.70
70068;DHT22;57425;51.616;6.680;2023-04-06T09:44:57;5.90;70.40
70068;DHT22;57425;51.616;6.680;2023-04-06T09:47:23;5.90;70.70
70068;DHT22;57425;51.616;6.680;2023-04-06T09:49:50;5.90;70.70
70068;DHT22;57425;51.616;6.680;2023-04-06T09:52:20;6.00;70.80
70068;DHT22;57425;51.616;6.680;2023-04-06T09:54:50;6.00;70.90
70068;DHT22;57425;51.616;6.680;2023-04-06T09:57:25;6.00;70.90
70068;DHT22;57425;51.616;6.680;2023-04-06T10:00:03;6.00;71.10
70068;DHT22;57425;51.616;6.680;2023-04-06T10:05:30;6.10;71.40
70068;DHT22;57425;51.616;6.680;2023-04-06T10:08:04;6.10;71.40
70068;DHT22;57425;51.616;6.680;2023-04-06T10:10:31;6.20;71.50
70068;DHT22;57425;51.616;6.680;2023-04-06T10:12:56;6.10;71.50
70068;DHT22;57425;51.616;6.680;2023-04-06T10:15:23;6.20;71.60
70068;DHT22;57425;51.616;6.680;2023-04-06T10:17:49;6.20;71.60
70068;DHT22;57425;51.616;6.680;2023-04-06T10:20:23;6.30;71.70
70068;DHT22;57425;51.616;6.680;2023-04-06T10:22:55;6.30;71.60
70068;DHT22;57425;51.616;6.680;2023-04-06T10:28:19;6.80;97.60
70068;DHT22;57425;51.616;6.680;2023-04-06T10:30:45;6.60;81.60
70068;DHT22;57425;51.616;6.680;2023-04-06T10:33:15;6.70;81.00
70068;DHT22;57425;51.616;6.680;2023-04-06T10:35:41;6.50;81.70
70068;DHT22;57425;51.616;6.680;2023-04-06T10:38:06;6.50;82.80
70068;DHT22;57425;51.616;6.680;2023-04-06T10:40:36;6.50;72.10
70068;DHT22;57425;51.616;6.680;2023-04-06T10:45:35;6.80;95.00
70068;DHT22;57425;51.616;6.680;2023-04-06T10:48:15;6.90;93.90
70068;DHT22;57425;51.616;6.680;2023-04-06T10:50:49;6.80;78.20
70068;DHT22;57425;51.616;6.680;2023-04-06T10:53:23;6.90;81.80
70068;DHT22;57425;51.616;6.680;2023-04-06T10:55:51;6.90;90.60
70068;DHT22;57425;51.616;6.680;2023-04-06T10:58:17;6.90;78.00
70068;DHT22;57425;51.616;6.680;2023-04-06T11:00:46;6.80;75.80
70068;DHT22;57425;51.616;6.680;2023-04-06T11:03:12;6.90;75.40
70068;DHT22;57425;51.616;6.680;2023-04-06T11:05:38;7.00;75.80
70068;DHT22;57425;51.616;6.680;2023-04-06T11:08:04;7.00;91.00
70068;DHT22;57425;51.616;6.680;2023-04-06T11:10:30;7.10;90.40
70068;DHT22;57425;51.616;6.680;2023-04-06T11:12:56;6.90;72.50
70068;DHT22;57425;51.616;6.680;2023-04-06T11:15:22;7.10;86.20
70068;DHT22;57425;51.616;6.680;2023-04-06T11:17:48;7.00;85.30
70068;DHT22;57425;51.616;6.680;2023-04-06T11:20:15;7.10;82.90
70068;DHT22;57425;51.616;6.680;2023-04-06T11:22:53;7.10;78.30
70068;DHT22;57425;51.616;6.680;2023-04-06T11:25:18;7.10;72.80
70068;DHT22;57425;51.616;6.680;2023-04-06T11:27:46;7.10;73.00
70068;DHT22;57425;51.616;6.680;2023-04-06T11:30:12;7.20;73.10
70068;DHT22;57425;51.616;6.680;2023-04-06T11:32:42;7.20;73.20
70068;DHT22;57425;51.616;6.680;2023-04-06T11:35:26;7.30;72.50
70068;DHT22;57425;51.616;6.680;2023-04-06T11:37:52;7.30;72.80
70068;DHT22;57425;51.616;6.680;2023-04-06T11:40:22;7.30;73.10
70068;DHT22;57425;51.616;6.680;2023-04-06T11:42:55;7.30;73.20
70068;DHT22;57425;51.616;6.680;2023-04-06T11:45:21;7.30;73.10
70068;DHT22;57425;51.616;6.680;2023-04-06T11:47:56;7.40;73.30
70068;DHT22;57425;51.616;6.680;2023-04-06T11:50:22;7.40;73.70
70068;DHT22;57425;51.616;6.680;2023-04-06T11:52:58;7.40;73.30
70068;DHT22;57425;51.616;6.680;2023-04-06T11:55:26;7.50;73.40
70068;DHT22;57425;51.616;6.680;2023-04-06T11:57:52;7.50;73.50
70068;DHT22;57425;51.616;6.680;2023-04-06T12:00:18;7.50;73.50
70068;DHT22;57425;51.616;6.680;2023-04-06T12:02:48;7.50;73.60
70068;DHT22;57425;51.616;6.680;2023-04-06T12:05:14;7.60;73.60
70068;DHT22;57425;51.616;6.680;2023-04-06T12:07:39;7.60;73.60
70068;DHT22;57425;51.616;6.680;2023-04-06T12:10:05;7.60;73.60
70068;DHT22;57425;51.616;6.680;2023-04-06T12:12:31;7.70;73.60
70068;DHT22;57425;51.616;6.680;2023-04-06T12:14:57;7.70;73.60
70068;DHT22;57425;51.616;6.680;2023-04-06T12:17:23;7.70;73.70
70068;DHT22;57425;51.616;6.680;2023-04-06T12:19:49;7.70;73.80
70068;DHT22;57425;51.616;6.680;2023-04-06T12:22:14;7.80;74.40
70068;DHT22;57425;51.616;6.680;2023-04-06T12:24:40;7.80;73.90
70068;DHT22;57425;51.616;6.680;2023-04-06T12:27:06;7.80;73.90
70068;DHT22;57425;51.616;6.680;2023-04-06T12:29:32;7.80;73.90
70068;DHT22;57425;51.616;6.680;2023-04-06T12:31:58;7.80;73.90
70068;DHT22;57425;51.616;6.680;2023-04-06T12:34:23;7.90;74.00
70068;DHT22;57425;51.616;6.680;2023-04-06T12:36:49;7.90;74.00
70068;DHT22;57425;51.616;6.680;2023-04-06T12:39:15;7.90;73.80
70068;DHT22;57425;51.616;6.680;2023-04-06T12:41:42;8.00;73.90
70068;DHT22;57425;51.616;6.680;2023-04-06T12:44:08;8.00;73.90
70068;DHT22;57425;51.616;6.680;2023-04-06T12:46:34;8.00;74.00
70068;DHT22;57425;51.616;6.680;2023-04-06T12:49:00;8.00;74.00
70068;DHT22;57425;51.616;6.680;2023-04-06T12:51:29;8.10;74.20
70068;DHT22;57425;51.616;6.680;2023-04-06T12:53:55;8.10;74.10
70068;DHT22;57425;51.616;6.680;2023-04-06T12:56:21;8.10;74.00
70068;DHT22;57425;51.616;6.680;2023-04-06T12:58:48;8.20;74.10
70068;DHT22;57425;51.616;6.680;2023-04-06T13:01:13;8.20;74.10
70068;DHT22;57425;51.616;6.680;2023-04-06T13:03:40;8.20;74.10
70068;DHT22;57425;51.616;6.680;2023-04-06T13:08:34;8.20;73.50
70068;DHT22;57425;51.616;6.680;2023-04-06T13:11:00;8.30;74.10
70068;DHT22;57425;51.616;6.680;2023-04-06T13:13:27;8.30;74.10
70068;DHT22;57425;51.616;6.680;2023-04-06T13:16:04;8.30;74.20
70068;DHT22;57425;51.616;6.680;2023-04-06T13:18:31;8.40;74.20
70068;DHT22;57425;51.616;6.680;2023-04-06T13:20:58;8.40;74.40
70068;DHT22;57425;51.616;6.680;2023-04-06T13:23:25;8.40;74.40
70068;DHT22;57425;51.616;6.680;2023-04-06T13:26:05;8.40;74.40
70068;DHT22;57425;51.616;6.680;2023-04-06T13:28:31;8.40;74.40
70068;DHT22;57425;51.616;6.680;2023-04-06T13:30:59;8.50;75.20
70068;DHT22;57425;51.616;6.680;2023-04-06T13:33:25;8.50;74.60
70068;DHT22;57425;51.616;6.680;2023-04-06T13:35:51;8.50;74.70
70068;DHT22;57425;51.616;6.680;2023-04-06T13:38:17;8.50;74.60
70068;DHT22;57425;51.616;6.680;2023-04-06T13:40:43;8.50;74.70
70068;DHT22;57425;51.616;6.680;2023-04-06T13:43:09;8.50;74.70
70068;DHT22;57425;51.616;6.680;2023-04-06T13:45:35;8.50;74.80
70068;DHT22;57425;51.616;6.680;2023-04-06T13:48:00;8.60;74.90
70068;DHT22;57425;51.616;6.680;2023-04-06T13:50:26;8.60;74.80
70068;DHT22;57425;51.616;6.680;2023-04-06T13:52:52;8.60;74.90
70068;DHT22;57425;51.616;6.680;2023-04-06T13:55:18;8.70;75.10
70068;DHT22;57425;51.616;6.680;2023-04-06T13:57:43;8.70;75.30
70068;DHT22;57425;51.616;6.680;2023-04-06T14:00:10;8.70;75.50
70068;DHT22;57425;51.616;6.680;2023-04-06T14:02:38;8.70;75.60
70068;DHT22;57425;51.616;6.680;2023-04-06T14:05:04;8.80;75.90
70068;DHT22;57425;51.616;6.680;2023-04-06T14:07:30;8.70;76.00
70068;DHT22;57425;51.616;6.680;2023-04-06T14:09:55;8.80;76.20
70068;DHT22;57425;51.616;6.680;2023-04-06T14:12:21;8.80;76.30
70068;DHT22;57425;51.616;6.680;2023-04-06T14:14:46;8.80;76.50
70068;DHT22;57425;51.616;6.680;2023-04-06T14:17:12;8.80;77.10
70068;DHT22;57425;51.616;6.680;2023-04-06T14:19:38;8.90;76.80
70068;DHT22;57425;51.616;6.680;2023-04-06T14:22:04;8.80;77.10
70068;DHT22;57425;51.616;6.680;2023-04-06T14:24:30;8.90;77.40
70068;DHT22;57425;51.616;6.680;2023-04-06T14:26:56;8.90;77.70
70068;DHT22;57425;51.616;6.680;2023-04-06T14:29:22;8.90;77.70
70068;DHT22;57425;51.616;6.680;2023-04-06T14:31:48;8.90;78.00
70068;DHT22;57425;51.616;6.680;2023-04-06T14:34:14;8.90;78.30
70068;DHT22;57425;51.616;6.680;2023-04-06T14:36:41;8.90;78.50
70068;DHT22;57425;51.616;6.680;2023-04-06T14:39:07;9.10;78.80
70068;DHT22;57425;51.616;6.680;2023-04-06T14:41:34;9.00;79.30
70068;DHT22;57425;51.616;6.680;2023-04-06T14:44:00;9.00;78.90
70068;DHT22;57425;51.616;6.680;2023-04-06T14:46:26;9.00;79.00
70068;DHT22;57425;51.616;6.680;2023-04-06T14:48:54;9.00;79.10
70068;DHT22;57425;51.616;6.680;2023-04-06T14:51:21;9.00;79.10
70068;DHT22;57425;51.616;6.680;2023-04-06T14:53:47;9.00;79.00
70068;DHT22;57425;51.616;6.680;2023-04-06T14:56:12;9.00;79.10
70068;DHT22;57425;51.616;6.680;2023-04-06T14:58:38;9.10;79.10
70068;DHT22;57425;51.616;6.680;2023-04-06T15:01:04;9.10;78.90
70068;DHT22;57425;51.616;6.680;2023-04-06T15:03:31;9.10;78.90
70068;DHT22;57425;51.616;6.680;2023-04-06T15:05:57;9.20;79.10
70068;DHT22;57425;51.616;6.680;2023-04-06T15:08:23;9.10;79.00
70068;DHT22;57425;51.616;6.680;2023-04-06T15:10:50;9.10;79.00
70068;DHT22;57425;51.616;6.680;2023-04-06T15:13:16;9.20;79.00
70068;DHT22;57425;51.616;6.680;2023-04-06T15:15:43;9.20;79.00
70068;DHT22;57425;51.616;6.680;2023-04-06T15:18:10;9.20;78.90
70068;DHT22;57425;51.616;6.680;2023-04-06T15:20:36;9.20;79.00
70068;DHT22;57425;51.616;6.680;2023-04-06T15:23:02;9.30;79.30
70068;DHT22;57425;51.616;6.680;2023-04-06T15:25:28;9.30;79.30
70068;DHT22;57425;51.616;6.680;2023-04-06T15:27:54;9.20;79.90
70068;DHT22;57425;51.616;6.680;2023-04-06T15:30:20;9.30;79.50
70068;DHT22;57425;51.616;6.680;2023-04-06T15:32:57;9.30;80.00
70068;DHT22;57425;51.616;6.680;2023-04-06T15:35:23;9.30;80.10
70068;DHT22;57425;51.616;6.680;2023-04-06T15:37:51;9.30;79.50
70068;DHT22;57425;51.616;6.680;2023-04-06T15:40:16;9.30;79.50
70068;DHT22;57425;51.616;6.680;2023-04-06T15:42:42;9.40;79.70
70068;DHT22;57425;51.616;6.680;2023-04-06T15:45:09;9.30;80.10
70068;DHT22;57425;51.616;6.680;2023-04-06T15:50:05;9.40;79.70
70068;DHT22;57425;51.616;6.680;2023-04-06T15:52:30;9.30;79.70
70068;DHT22;57425;51.616;6.680;2023-04-06T15:54:56;9.40;79.80
70068;DHT22;57425;51.616;6.680;2023-04-06T15:57:22;9.40;79.80
70068;DHT22;57425;51.616;6.680;2023-04-06T15:59:48;9.30;79.70
70068;DHT22;57425;51.616;6.680;2023-04-06T16:02:14;9.50;79.90
70068;DHT22;57425;51.616;6.680;2023-04-06T16:04:40;9.40;79.90